M I D A S
Marine Information and Data Acquisition System
Tripno 707 of the Zeeleeuw from 2004-05-04 07:46:19 to 2004-05-04 12:57:40
Back to CruiseResearch ActivitiesStationsMapUnderway DataData graphs

EquipmentUnitsComment
TimeDGPSUTC
LatitudeDGPSDM.mWGS84
LongitudeDGPSDM.mWGS84
TemperatureSBE03/SBE38deg celciusITS90
ConductivitySBE21S/mITS90
SalinitySBE21 Practical Salinity Units
ChlorophylAChelsea fluorimeterg/lCalibrated in Aceton
Missing or incorrect values are displayed as -999
Sea surface data collected by the RV Zeeleeuw from 2004-05-04 07:46:19 to 2004-05-04 12:57:40
Time Latitude Longitude Temperature Conductivity Salinity ChlorophylA
2004-05-04 07:47:20 51°18.039 2°41.621 11.449169 3.789209 33.263562 68.053349
2004-05-04 07:48:20 51°18.063 2°41.231 11.47435 3.797008 33.319822 68.120768
2004-05-04 07:49:22 51°18.089 2°40.83 11.556158 3.814188 33.446947 68.188187
2004-05-04 07:50:21 51°18.122 2°40.45 11.615126 3.828627 33.51919 68.491571
2004-05-04 07:51:22 51°18.157 2°40.059 11.660506 3.84254 33.60902 68.053349
2004-05-04 07:52:22 51°18.195 2°39.676 11.706677 3.850972 33.649612 66.704973
2004-05-04 07:53:21 51°18.229 2°39.303 11.724588 3.853185 33.640367 63.50258
2004-05-04 07:54:21 51°18.263 2°38.924 11.72669 3.854766 33.646448 60.367606
2004-05-04 07:55:22 51°18.297 2°38.54 11.724588 3.862777 33.726545 57.434888
2004-05-04 07:56:22 51°18.326 2°38.16 11.714125 3.86752 33.773431 54.299913
2004-05-04 07:57:21 51°18.354 2°37.785 11.684281 3.869839 33.812548 49.580597
2004-05-04 07:58:21 51°18.383 2°37.401 11.666176 3.869312 33.831896 43.411777
2004-05-04 07:59:22 51°18.413 2°37.007 11.658356 3.870367 33.852986 39.332939
2004-05-04 08:00:22 51°18.445 2°36.619 11.66046 3.873107 33.883321 36.299093
2004-05-04 08:01:22 51°18.476 2°36.228 11.656847 3.878167 33.934118 34.849589
2004-05-04 08:02:21 51°18.462 2°35.845 11.648249 3.881751 33.976325 32.928153
2004-05-04 08:03:22 51°18.407 2°35.455 11.632604 3.885651 34.026722 31.343811
2004-05-04 08:04:22 51°18.354 2°35.071 11.610916 3.890817 34.092431 31.276392
2004-05-04 08:05:21 51°18.303 2°34.689 11.589494 3.893452 34.135663 30.703332
2004-05-04 08:06:22 51°18.251 2°34.296 11.571317 3.895455 34.169837 30.332529
2004-05-04 08:07:20 51°18.226 2°33.918 11.550204 3.89788 34.211095 29.11899
2004-05-04 08:08:22 51°18.215 2°33.516 11.537193 3.898407 34.239675 30.332529
2004-05-04 08:09:22 51°18.203 2°33.128 11.53417 3.897037 34.232843 30.568494
2004-05-04 08:10:22 51°18.192 2°32.742 11.517902 3.895561 34.225709 31.883161
2004-05-04 08:11:22 51°18.179 2°32.36 11.494113 3.89398 34.224133 30.2314
2004-05-04 08:12:22 51°18.127 2°31.988 11.457105 3.892083 34.236325 29.051571
2004-05-04 08:13:22 51°18.023 2°31.636 11.456187 3.890397 34.234455 34.377657
2004-05-04 08:14:21 51°17.922 2°31.286 11.436047 3.888816 34.229949 37.714888
2004-05-04 08:15:22 51°17.819 2°30.923 11.400751 3.887446 34.242208 39.29923
2004-05-04 08:16:21 51°17.718 2°30.57 11.365115 3.885549 34.25446 38.422785
2004-05-04 08:17:22 51°17.616 2°30.204 11.345865 3.884706 34.268264 37.613759
2004-05-04 08:18:22 51°17.514 2°29.844 11.309372 3.882915 34.27939 36.602477
2004-05-04 08:19:22 51°17.4 2°29.492 11.27962 3.881755 34.293815 35.726033
2004-05-04 08:20:22 51°17.283 2°29.14 11.24921 3.88028 34.316247 35.793452
2004-05-04 08:21:22 51°17.167 2°28.787 11.21584 3.879543 34.33786 34.579913
2004-05-04 08:22:22 51°17.074 2°28.5 11.185354 3.8787 34.356986 32.624768
2004-05-04 08:23:22 51°16.995 2°28.285 11.164946 3.878278 34.375853 30.332529
2004-05-04 08:24:21 51°16.923 2°28.14 11.14361 3.878173 34.394153 28.276255
2004-05-04 08:25:22 51°16.863 2°27.986 11.119547 3.877963 34.406217 27.264973
2004-05-04 08:26:22 51°16.8 2°27.85 11.105529 3.877752 34.427986 26.017725
2004-05-04 08:27:21 51°16.741 2°27.717 11.084081 3.877752 34.443661 25.343537
2004-05-04 08:28:22 51°16.676 2°27.628 11.085373 3.877963 34.453966 25.107571
2004-05-04 08:29:22 51°16.649 2°27.519 11.058104 3.877647 34.461296 23.961452
2004-05-04 08:30:22 51°16.643 2°27.362 11.048227 3.876383 34.468202 23.894033
2004-05-04 08:31:22 51°16.641 2°27.302 11.036917 3.876383 34.477184 22.511947
2004-05-04 08:32:22 51°16.642 2°27.284 11.023759 3.875961 34.48723 22.747913
2004-05-04 08:33:22 51°16.645 2°27.263 11.017848 3.876172 34.496067 24.669349
2004-05-04 08:34:22 51°16.65 2°27.241 11.018403 3.875224 34.490399 23.354683
2004-05-04 08:35:22 51°16.664 2°27.208 11.020342 3.875224 34.490399 23.52323
2004-05-04 08:36:21 51°16.689 2°27.164 11.018449 3.875013 34.489056 23.826614
2004-05-04 08:37:22 51°16.74 2°27.188 11.022189 3.87554 34.48979 23.792905
2004-05-04 08:38:22 51°16.716 2°27.276 11.034609 3.872588 34.446279 24.399674
2004-05-04 08:39:22 51°16.637 2°27.313 11.035486 3.873853 34.46182 25.377247
2004-05-04 08:40:22 51°16.542 2°27.37 11.035809 3.873326 34.451354 25.950306
2004-05-04 08:41:22 51°16.387 2°27.379 11.034701 3.875329 34.473466 25.849178
2004-05-04 08:42:21 51°16.175 2°27.338 11.033778 3.873221 34.455546 25.984016
2004-05-04 08:43:22 51°15.939 2°27.272 11.026022 3.872694 34.449569 24.736768
2004-05-04 08:44:22 51°15.708 2°27.196 11.007088 3.872799 34.468584 22.882751
2004-05-04 08:45:22 51°15.477 2°27.125 10.990967 3.869743 34.457718 20.995024
2004-05-04 08:46:21 51°15.247 2°27.061 10.977153 3.871113 34.474324 19.376973
2004-05-04 08:47:22 51°15.011 2°26.982 10.940501 3.870797 34.500449 16.241999
2004-05-04 08:48:22 51°14.781 2°26.894 10.920016 3.875014 34.56795 14.118306
2004-05-04 08:49:22 51°14.549 2°26.805 10.922884 3.874803 34.577908 14.152016
2004-05-04 08:50:22 51°14.318 2°26.721 10.924271 3.874908 34.569914 14.253144
2004-05-04 08:51:22 51°14.087 2°26.637 10.917981 3.875119 34.581055 13.444118
2004-05-04 08:52:22 51°13.856 2°26.553 10.931716 3.875225 34.575321 13.3767
2004-05-04 08:53:21 51°13.628 2°26.471 10.960239 3.876173 34.565176 13.882341
2004-05-04 08:54:22 51°13.395 2°26.39 10.989905 3.877016 34.550237 14.590238
2004-05-04 08:55:22 51°13.166 2°26.31 11.018726 3.877964 34.531111 16.006033
2004-05-04 08:56:22 51°12.937 2°26.23 11.041303 3.879018 34.516815 17.3207
2004-05-04 08:57:21 51°12.711 2°26.151 11.055611 3.880283 34.510626 19.882614
2004-05-04 08:58:21 51°12.482 2°26.072 11.063226 3.880599 34.504773 20.051161
2004-05-04 08:59:22 51°12.25 2°25.995 11.051688 3.881021 34.511202 20.017452
2004-05-04 09:00:22 51°12.024 2°25.924 11.045042 3.880704 34.514808 19.781486
2004-05-04 09:01:22 51°11.8 2°25.857 11.053627 3.880915 34.516899 20.287127
2004-05-04 09:02:22 51°11.575 2°25.79 11.041441 3.881548 34.519426 21.568084
2004-05-04 09:03:22 51°11.352 2°25.729 11.022605 3.882708 34.555683 15.264426
2004-05-04 09:04:28 51°11.11 2°25.764 11.039087 3.883235 34.559413 15.06217
2004-05-04 09:05:28 51°10.937 2°25.998 11.059165 3.884288 34.553361 14.859913
2004-05-04 09:06:28 51°10.867 2°26.345 11.12116 3.885975 34.548341 15.567811
2004-05-04 09:07:28 51°10.898 2°26.713 11.20746 3.89272 34.524615 14.927332
2004-05-04 09:08:28 51°10.943 2°27.08 11.242951 3.897252 34.520172 16.208289
2004-05-04 09:09:28 51°10.992 2°27.437 11.267752 3.89936 34.51342 17.624084
2004-05-04 09:10:28 51°11.04 2°27.785 11.293601 3.901257 34.506092 18.669076
2004-05-04 09:11:28 51°11.082 2°28.145 11.318014 3.903259 34.500562 18.264563
2004-05-04 09:12:28 51°11.115 2°28.508 11.351149 3.905051 34.494451 19.039879
2004-05-04 09:13:28 51°11.138 2°28.872 11.378894 3.907053 34.483752 20.489383
2004-05-04 09:14:28 51°11.16 2°29.244 11.411218 3.908529 34.474558 22.478238
2004-05-04 09:15:28 51°11.183 2°29.61 11.445911 3.910004 34.461679 24.433383
2004-05-04 09:16:28 51°11.161 2°29.978 11.489895 3.912007 34.440706 26.186272
2004-05-04 09:17:32 51°11.072 2°30.345 11.540034 3.914431 34.419503 28.883024
2004-05-04 09:18:32 51°10.953 2°30.663 11.60611 3.917381 34.399118 30.467366
2004-05-04 09:19:32 51°10.825 2°30.93 11.651725 3.917908 34.338233 35.018136
2004-05-04 09:20:32 51°10.753 2°31.096 11.667045 3.922124 34.362605 37.209247
2004-05-04 09:21:32 51°10.734 2°31.274 11.703661 3.923705 34.360482 35.759742
2004-05-04 09:22:32 51°10.708 2°31.443 11.736466 3.925918 34.344796 36.737315
2004-05-04 09:23:32 51°10.706 2°31.573 11.762725 3.927815 34.336284 39.130683
2004-05-04 09:24:32 51°10.712 2°31.624 11.775463 3.929291 34.330972 40.9847
2004-05-04 09:25:32 51°10.728 2°31.638 11.783816 3.930134 34.328982 42.703879
2004-05-04 09:26:32 51°10.742 2°31.673 11.784501 3.930345 34.329578 45.569178
2004-05-04 09:27:32 51°10.752 2°31.714 11.787605 3.930345 34.327391 47.793999
2004-05-04 09:28:32 51°10.76 2°31.756 11.794496 3.930872 34.325966 47.220939
2004-05-04 09:29:32 51°10.769 2°31.802 11.801661 3.931083 34.320734 45.805144
2004-05-04 09:30:32 51°10.779 2°31.848 11.806361 3.93161 34.320768 46.513042
2004-05-04 09:31:32 51°10.788 2°31.896 11.809966 3.931926 34.320207 46.58046
2004-05-04 09:32:32 51°10.798 2°31.943 11.813433 3.932347 34.320671 46.749007
2004-05-04 09:33:32 51°10.81 2°31.991 11.821326 3.932453 34.316601 48.29964
2004-05-04 09:34:32 51°10.819 2°32.042 11.82388 3.932874 34.317794 48.636734
2004-05-04 09:35:32 51°10.827 2°32.094 11.824884 3.932664 34.313559 49.041247
2004-05-04 09:36:32 51°10.833 2°32.148 11.836014 3.93298 34.31227 50.086238
2004-05-04 09:37:32 51°10.834 2°32.224 11.839525 3.933401 34.308371 50.895264
2004-05-04 09:38:31 51°10.863 2°32.365 11.843356 3.933928 34.308409 50.052529
2004-05-04 09:39:32 51°10.952 2°32.421 11.860729 3.933928 34.304046 50.153657
2004-05-04 09:40:32 51°10.99 2°32.44 11.878416 3.935615 34.303007 50.153657
2004-05-04 09:41:32 51°11.009 2°32.469 11.884433 3.936142 34.295782 53.524597
2004-05-04 09:42:40 51°11.028 2°32.508 11.907125 3.937301 34.292533 53.086375
2004-05-04 09:43:40 51°11.045 2°32.547 11.907216 3.938144 34.291293 51.468324
2004-05-04 09:44:40 51°11.063 2°32.589 11.899334 3.93709 34.288307 47.322067
2004-05-04 09:45:40 51°11.081 2°32.631 11.895507 3.936458 34.287241 45.130956
2004-05-04 09:46:40 51°11.103 2°32.666 11.898332 3.936668 34.287839 46.951264
2004-05-04 09:47:40 51°11.12 2°32.664 11.902934 3.936879 34.289161 46.310785
2004-05-04 09:48:40 51°11.116 2°32.644 11.905622 3.93709 34.288307 49.074956
2004-05-04 09:49:40 51°11.098 2°32.609 11.899699 3.936774 34.286686 53.254922
2004-05-04 09:50:40 51°11.083 2°32.57 11.89578 3.936668 34.287839 53.288631
2004-05-04 09:51:40 51°11.068 2°32.529 11.881105 3.936247 34.291725 50.928973
2004-05-04 09:52:40 51°11.044 2°32.494 11.877095 3.935298 34.293394 50.895264
2004-05-04 09:53:40 51°11.019 2°32.455 11.855805 3.935193 34.301086 49.513178
2004-05-04 09:54:40 51°10.994 2°32.412 11.835558 3.934034 34.306526 46.411913
2004-05-04 09:55:40 51°10.965 2°32.382 11.832228 3.933085 34.311114 44.018546
2004-05-04 09:56:40 51°10.932 2°32.358 11.817448 3.932769 34.316768 43.748871
2004-05-04 09:57:40 51°10.9 2°32.325 11.798284 3.931399 34.319444 40.715024
2004-05-04 09:58:40 51°10.875 2°32.29 11.77916 3.93045 34.324045 40.209383
2004-05-04 09:59:40 51°10.849 2°32.256 11.762908 3.929607 34.334054 39.703742
2004-05-04 10:00:40 51°10.823 2°32.219 11.74455 3.928659 34.338668 38.389076
2004-05-04 10:01:40 51°10.804 2°32.181 11.726187 3.927499 34.344882 36.332802
2004-05-04 10:02:40 51°10.785 2°32.141 11.719243 3.926762 34.350102 33.838306
2004-05-04 10:03:40 51°10.764 2°32.106 11.699456 3.927183 34.360797 31.815742
2004-05-04 10:04:40 51°10.746 2°32.067 11.689629 3.925919 34.371125 29.354956
2004-05-04 10:05:40 51°10.724 2°32.03 11.675549 3.926235 34.374946 28.411093
2004-05-04 10:06:40 51°10.702 2°31.994 11.650307 3.925181 34.387354 26.152563
2004-05-04 10:07:40 51°10.684 2°31.954 11.636081 3.924127 34.395378 24.467093
2004-05-04 10:08:40 51°10.669 2°31.913 11.630408 3.923495 34.401666 23.927742
2004-05-04 10:09:40 51°10.662 2°31.865 11.623545 3.923179 34.408116 22.3434
2004-05-04 10:10:40 51°10.678 2°31.809 11.615355 3.923706 34.413273 22.478238
2004-05-04 10:11:40 51°10.705 2°31.77 11.606156 3.922546 34.415883 21.298409
2004-05-04 10:12:40 51°10.731 2°31.769 11.600297 3.922125 34.412491 22.3434
2004-05-04 10:13:40 51°10.757 2°31.788 11.598878 3.922019 34.416603 23.759195
2004-05-04 10:14:40 51°10.783 2°31.82 11.595857 3.921492 34.417323 23.860324
2004-05-04 10:15:40 51°10.824 2°31.825 11.597551 3.921492 34.417323 23.253554
2004-05-04 10:16:40 51°10.903 2°31.871 11.594209 3.921492 34.415853 22.91646
2004-05-04 10:17:40 51°10.983 2°31.985 11.601487 3.920965 34.409223 24.129999
2004-05-04 10:18:40 51°11.035 2°32.111 11.607117 3.92086 34.403783 24.972734
2004-05-04 10:19:40 51°11.069 2°32.23 11.610732 3.920754 34.394672 25.646922
2004-05-04 10:20:40 51°11.099 2°32.34 11.617139 3.920754 34.391001 26.826751
2004-05-04 10:21:40 51°11.131 2°32.443 11.627251 3.921492 34.389413 29.085281
2004-05-04 10:22:40 51°11.165 2°32.538 11.634709 3.921492 34.382076 31.310101
2004-05-04 10:23:40 51°11.204 2°32.626 11.643721 3.921703 34.377537 32.557349
2004-05-04 10:24:40 51°11.253 2°32.713 11.65424 3.922335 34.375657 34.343947
2004-05-04 10:25:40 51°11.304 2°32.788 11.655246 3.922862 34.372015 36.096836
2004-05-04 10:26:44 51°11.359 2°32.848 11.668462 3.923073 34.368947 37.512631
2004-05-04 10:27:44 51°11.414 2°32.896 11.674818 3.9236 34.366773 36.771024
2004-05-04 10:28:44 51°11.471 2°32.935 11.674315 3.9236 34.364577 37.748597
2004-05-04 10:29:44 51°11.526 2°32.976 11.675961 3.924021 34.365767 38.085691
2004-05-04 10:30:44 51°11.58 2°33.024 11.670886 3.920859 34.337799 37.141828
2004-05-04 10:31:44 51°11.634 2°33.091 11.657487 3.916959 34.307009 36.332802
2004-05-04 10:32:44 51°11.691 2°33.155 11.657945 3.917697 34.322264 35.860871
2004-05-04 10:33:44 51°11.749 2°33.213 11.650581 3.922862 34.374213 35.759742
2004-05-04 10:34:44 51°11.804 2°33.281 11.630729 3.916643 34.325134 34.74846
2004-05-04 10:35:44 51°11.857 2°33.362 11.619015 3.919489 34.366153 33.265247
2004-05-04 10:36:44 51°11.904 2°33.451 11.611648 3.914113 34.320167 33.63605
2004-05-04 10:37:44 51°11.942 2°33.54 11.61238 3.910951 34.295094 34.074272
2004-05-04 10:38:44 51°11.976 2°33.628 11.608673 3.911056 34.298321 34.512494
2004-05-04 10:39:44 51°12.008 2°33.719 11.61151 3.911056 34.30125 34.276529
2004-05-04 10:40:44 51°12.037 2°33.807 11.611007 3.910424 34.292134 34.512494
2004-05-04 10:41:44 51°12.063 2°33.888 11.615126 3.90958 34.282422 35.32152
2004-05-04 10:42:44 51°12.088 2°33.967 11.616636 3.904099 34.225895 36.669896
2004-05-04 10:43:44 51°12.111 2°34.05 11.615309 3.919067 34.369362 35.793452
2004-05-04 10:44:44 51°12.166 2°34.193 11.617414 3.911372 34.294826 34.849589
2004-05-04 10:45:44 51°12.335 2°34.376 11.614897 3.910529 34.28292 34.714751
2004-05-04 10:46:44 51°12.545 2°34.605 11.575026 3.908316 34.286884 40.175674
2004-05-04 10:47:44 51°12.746 2°34.847 11.554372 3.891872 34.153021 33.467503
2004-05-04 10:48:49 51°12.97 2°35.105 11.577316 3.90041 34.230007 32.759606
2004-05-04 10:49:49 51°13.173 2°35.356 11.588029 3.902307 34.239067 33.737178
2004-05-04 10:50:49 51°13.38 2°35.603 11.595354 3.902096 34.221651 34.613623
2004-05-04 10:51:49 51°13.586 2°35.851 11.604874 3.894085 34.143305 33.973144
2004-05-04 10:52:48 51°13.786 2°36.092 11.641708 3.898828 34.175097 33.804597
2004-05-04 10:53:48 51°13.985 2°36.341 11.659957 3.90336 34.178564 35.018136
2004-05-04 10:54:49 51°14.192 2°36.589 11.672714 3.900409 34.141738 35.726033
2004-05-04 10:55:49 51°14.392 2°36.832 11.680075 3.888392 34.029536 38.658751
2004-05-04 10:56:49 51°14.592 2°37.064 11.716821 3.898616 34.098818 44.32193
2004-05-04 10:57:49 51°14.801 2°37.27 11.749026 3.899037 34.073192 48.333349
2004-05-04 10:58:48 51°15.01 2°37.473 11.76067 3.889972 33.966084 53.187503
2004-05-04 10:59:48 51°15.219 2°37.676 11.756698 3.881328 33.871866 56.491024
2004-05-04 11:00:48 51°15.425 2°37.896 11.746149 3.893767 33.99653 56.592153
2004-05-04 11:01:48 51°15.638 2°38.103 11.726918 3.859403 33.680827 56.929247
2004-05-04 11:02:49 51°15.865 2°38.266 11.717964 3.877323 33.869597 57.468597
2004-05-04 11:03:49 51°16.086 2°38.438 11.69612 3.849285 33.611717 58.109076
2004-05-04 11:04:48 51°16.304 2°38.594 11.691366 3.863199 33.753622 58.142785
2004-05-04 11:05:48 51°16.522 2°38.758 11.690361 3.851815 33.651374 59.221486
2004-05-04 11:06:49 51°16.748 2°38.922 11.687252 3.85445 33.677034 58.41246
2004-05-04 11:07:48 51°16.96 2°39.101 11.692235 3.852974 33.657648 58.176494
2004-05-04 11:08:48 51°17.178 2°39.278 11.688395 3.871526 33.836897 57.401178
2004-05-04 11:09:48 51°17.4 2°39.446 11.687115 3.870366 33.829921 54.872973
2004-05-04 11:10:48 51°17.568 2°39.515 11.675961 3.87005 33.834043 52.041383
2004-05-04 11:11:48 51°17.634 2°39.645 11.65982 3.869207 33.836634 49.209794
2004-05-04 11:12:48 51°17.645 2°39.772 11.648203 3.868891 33.829948 45.670306
2004-05-04 11:13:48 51°17.67 2°39.839 11.646831 3.867626 33.832032 47.692871
2004-05-04 11:14:49 51°17.673 2°39.94 11.647837 3.866888 33.834932 51.198648
2004-05-04 11:15:49 51°17.642 2°40.009 11.644132 3.867205 33.830804 48.063674
2004-05-04 11:16:48 51°17.67 2°40.068 11.640839 3.865834 33.828256 49.142375
2004-05-04 11:17:49 51°17.7 2°40.123 11.638231 3.865307 33.827443 50.659298
2004-05-04 11:18:48 51°17.715 2°40.154 11.636722 3.865202 33.826414 50.693007
2004-05-04 11:19:49 51°17.728 2°40.174 11.635898 3.864991 33.826522 50.119947
2004-05-04 11:20:49 51°17.733 2°40.191 11.636356 3.86478 33.824465 47.72658
2004-05-04 11:21:49 51°17.748 2°40.225 11.633748 3.864991 33.827243 48.131093
2004-05-04 11:22:49 51°17.755 2°40.246 11.640702 3.86478 33.827351 48.434477
2004-05-04 11:23:48 51°17.742 2°40.272 11.638506 3.865307 33.827443 48.468187
2004-05-04 11:24:49 51°17.73 2°40.316 11.640244 3.865518 33.828057 48.737862
2004-05-04 11:25:48 51°17.734 2°40.352 11.635898 3.865202 33.827857 49.007537
2004-05-04 11:26:49 51°17.741 2°40.346 11.639832 3.865097 33.828993 50.119947
2004-05-04 11:27:48 51°17.728 2°40.342 11.635395 3.865202 33.8293 49.883982
2004-05-04 11:28:48 51°17.715 2°40.322 11.637728 3.865729 33.830113 47.692871
2004-05-04 11:29:49 51°17.703 2°40.29 11.646877 3.866045 33.83392 48.501896
2004-05-04 11:30:49 51°17.662 2°40.254 11.654698 3.866361 33.833397 47.625452
2004-05-04 11:31:48 51°17.618 2°40.155 11.652502 3.867732 33.845322 47.659161
2004-05-04 11:32:49 51°17.577 2°40.091 11.662106 3.86868 33.846638 46.850136
2004-05-04 11:33:49 51°17.574 2°40.088 11.669697 3.870577 33.852878 47.18723
2004-05-04 11:34:49 51°17.592 2°40.106 11.66453 3.870367 33.851544 48.636734
2004-05-04 11:35:49 51°17.575 2°40.059 11.668051 3.869945 33.853203 48.940118
2004-05-04 11:36:49 51°17.55 2°40.007 11.670291 3.870999 33.854104 48.704153
2004-05-04 11:37:48 51°17.556 2°39.933 11.678658 3.870788 33.857097 47.558033
2004-05-04 11:38:48 51°17.58 2°39.856 11.675458 3.872369 33.858808 48.198512
2004-05-04 11:39:48 51°17.616 2°39.782 11.677286 3.873318 33.868777 47.322067
2004-05-04 11:40:49 51°17.62 2°39.737 11.668828 3.867837 33.825437 47.15352
2004-05-04 11:41:49 51°17.588 2°39.699 11.673812 3.872053 33.86871 47.72658
2004-05-04 11:42:48 51°17.546 2°39.677 11.671068 3.867521 33.818032 47.760289
2004-05-04 11:43:49 51°17.506 2°39.669 11.674498 3.875742 33.901076 46.883845
2004-05-04 11:44:48 51°17.473 2°39.646 11.676784 3.875637 33.902215 46.749007
2004-05-04 11:45:49 51°17.444 2°39.622 11.674863 3.876059 33.905605 46.883845
2004-05-04 11:46:49 51°17.417 2°39.598 11.669422 3.876586 33.905688 48.906409
2004-05-04 11:47:48 51°17.392 2°39.573 11.675869 3.876691 33.909605 47.827708
2004-05-04 11:48:49 51°17.362 2°39.549 11.685927 3.877851 33.91441 47.895127
2004-05-04 11:49:49 51°17.324 2°39.529 11.678338 3.878483 33.91841 47.692871
2004-05-04 11:50:49 51°17.288 2°39.504 11.665719 3.878272 33.922134 46.277076
2004-05-04 11:51:49 51°17.251 2°39.486 11.673172 3.878378 33.928221 46.749007
2004-05-04 11:52:49 51°17.226 2°39.462 11.667136 3.878589 33.929555 45.737725
2004-05-04 11:53:48 51°17.206 2°39.438 11.672074 3.878483 33.933588 47.524324
2004-05-04 11:54:48 51°17.201 2°39.382 11.670108 3.878589 33.934616 47.625452
2004-05-04 11:55:48 51°17.207 2°39.354 11.671114 3.879432 33.937779 48.535606
2004-05-04 11:56:49 51°17.228 2°39.369 11.6611 3.879537 33.94387 49.209794
2004-05-04 11:57:48 51°17.255 2°39.406 11.665307 3.879748 33.947373 48.198512
2004-05-04 11:58:49 51°17.285 2°39.448 11.658722 3.879959 33.951601 46.445623
2004-05-04 11:59:48 51°17.312 2°39.492 11.654332 3.87901 33.945962 46.816426
2004-05-04 12:00:48 51°17.333 2°39.482 11.654698 3.87901 33.949581 45.771435
2004-05-04 12:01:48 51°17.279 2°39.469 11.652091 3.878589 33.947637 47.692871
2004-05-04 12:02:48 51°17.145 2°39.452 11.656939 3.880064 33.955524 47.827708
2004-05-04 12:03:48 51°16.993 2°39.415 11.662472 3.880802 33.954762 48.973828
2004-05-04 12:04:48 51°16.833 2°39.371 11.661192 3.881329 33.954839 48.603024
2004-05-04 12:05:49 51°16.668 2°39.324 11.66581 3.882278 33.964816 49.209794
2004-05-04 12:06:49 51°16.472 2°39.291 11.674955 3.883227 33.973347 49.648016
2004-05-04 12:07:49 51°16.273 2°39.275 11.682041 3.885862 33.98964 50.55817
2004-05-04 12:08:49 51°16.073 2°39.277 11.694977 3.889024 34.012515 49.479469
2004-05-04 12:09:49 51°15.874 2°39.281 11.706631 3.893346 34.040894 49.648016
2004-05-04 12:10:48 51°15.676 2°39.281 11.717187 3.898827 34.085636 48.704153
2004-05-04 12:11:49 51°15.474 2°39.336 11.728928 3.903149 34.119064 49.243503
2004-05-04 12:12:48 51°15.278 2°39.392 11.719197 3.906522 34.148318 50.996392
2004-05-04 12:13:48 51°15.08 2°39.451 11.686932 3.910001 34.198238 48.805281
2004-05-04 12:14:48 51°14.889 2°39.564 11.662975 3.911372 34.248782 42.602751
2004-05-04 12:15:49 51°14.703 2°39.728 11.689127 3.914745 34.271506 37.445212
2004-05-04 12:16:49 51°14.523 2°39.915 11.668325 3.915693 34.277119 38.15311
2004-05-04 12:17:49 51°14.352 2°40.122 11.684692 3.917169 34.311994 39.535195
2004-05-04 12:18:48 51°14.224 2°40.407 12.021337 3.925284 34.241743 43.715161
2004-05-04 12:19:48 51°14.176 2°40.778 12.13794 3.933504 34.084771 56.457315
2004-05-04 12:20:49 51°14.176 2°41.172 12.17289 3.933503 34.028928 60.67099
2004-05-04 12:21:55 51°14.185 2°41.604 12.193624 3.935611 34.009992 66.233042
2004-05-04 12:22:54 51°14.23 2°41.99 12.169169 3.940671 34.063058 50.895264
2004-05-04 12:23:54 51°14.282 2°42.383 12.18505 3.949315 34.158607 45.198375
2004-05-04 12:24:54 51°14.326 2°42.776 12.223013 3.940354 34.047153 49.007537
2004-05-04 12:25:54 51°14.368 2°43.167 12.226731 3.923171 33.853204 67.44658
2004-05-04 12:26:55 51°14.413 2°43.564 12.205871 3.90757 33.710176 68.053349
2004-05-04 12:27:54 51°14.456 2°43.944 12.178607 3.893761 33.599909 68.053349
2004-05-04 12:28:54 51°14.499 2°44.331 12.154781 3.883115 33.524219 67.98593
2004-05-04 12:29:55 51°14.531 2°44.729 12.120957 3.872574 33.441745 68.01964
2004-05-04 12:30:55 51°14.564 2°45.127 12.090251 3.865828 33.402071 68.053349
2004-05-04 12:31:54 51°14.617 2°45.509 12.035798 3.855394 33.342243 68.053349
2004-05-04 12:32:55 51°14.668 2°45.899 11.989993 3.844854 33.283405 68.053349
2004-05-04 12:33:54 51°14.702 2°46.277 11.959317 3.834736 33.229238 67.98593
2004-05-04 12:34:54 51°14.728 2°46.664 11.928398 3.829993 33.207978 67.98593
2004-05-04 12:35:54 51°14.755 2°47.053 11.917512 3.826726 33.194645 67.98593
2004-05-04 12:36:54 51°14.776 2°47.443 11.942152 3.825355 33.1786 68.01964
2004-05-04 12:37:56 51°14.806 2°47.851 11.981984 3.828412 33.183596 68.01964
2004-05-04 12:38:54 51°14.846 2°48.226 12.009693 3.831257 33.178158 68.01964
2004-05-04 12:39:54 51°14.882 2°48.614 12.042391 3.8321 33.163215 67.98593
2004-05-04 12:40:53 51°14.912 2°48.995 12.115417 3.832205 33.124449 68.01964
2004-05-04 12:41:54 51°14.947 2°49.392 12.270788 3.841479 33.112769 68.053349
2004-05-04 12:42:54 51°14.981 2°49.783 12.361483 3.869831 33.2604 68.053349
2004-05-04 12:43:54 51°14.988 2°50.163 12.389758 3.885537 33.358642 68.120768
2004-05-04 12:44:52 51°14.993 2°50.539 12.372794 3.86572 33.168394 67.98593
2004-05-04 12:45:54 51°15.003 2°50.94 12.388446 3.84875 33.027533 68.01964
2004-05-04 12:46:54 51°15.005 2°51.324 12.431808 3.850962 32.999145 67.98593
2004-05-04 12:47:54 51°15.01 2°51.71 12.452507 3.85286 32.999394 68.01964
2004-05-04 12:48:54 51°15.018 2°52.098 12.433616 3.857708 33.033982 68.01964
2004-05-04 12:49:54 51°15.027 2°52.482 12.414177 3.838525 32.873587 67.98593
2004-05-04 12:50:54 51°14.994 2°52.847 12.408751 3.818498 32.693503 67.98593
2004-05-04 12:51:54 51°14.906 2°53.179 12.417025 3.800791 32.530821 67.98593
2004-05-04 12:52:54 51°14.807 2°53.508 12.46448 3.814493 32.628143 68.053349
2004-05-04 12:53:55 51°14.708 2°53.843 12.484672 3.835151 32.797723 68.053349
2004-05-04 12:54:55 51°14.626 2°54.189 12.500387 3.852753 32.949711 68.01964
2004-05-04 12:55:52 51°14.558 2°54.526 12.516777 3.846534 32.876123 68.01964
2004-05-04 12:56:54 51°14.457 2°54.87 12.564656 3.83104 32.706235 68.053349